Data for 07/22/2015

Time Sea-Level Adjusted Pressure Absolute Pressure Temperature Relative Humidity Dew Point   
(mb) (inHg) (mb) (inHg) (C) (F) (%) (C) (F)
00:05 1014 29.94 844 24.92 16.4 61.4 51 6.2 43.2
00:10 1014 29.94 843 24.89 16.6 62 50 6.3 43.4
00:15 1014 29.94 844 24.92 16.6 61.9 51 6.5 43.7
00:20 1014 29.94 844 24.92 16.4 61.5 51 6.4 43.6
00:25 1014 29.94 844 24.92 16.3 61.3 53 6.7 44
00:30 1014 29.94 844 24.92 16.2 61.2 52 6.6 43.9
00:35 1014 29.94 844 24.92 16.1 60.9 51 5.9 42.6
00:40 1014 29.94 844 24.92 16.3 61.4 52 6.5 43.7
00:45 1014 29.94 844 24.92 16.2 61.1 51 6 42.8
00:50 1014 29.94 844 24.92 16.2 61.1 52 6.3 43.4
00:55 1014 29.94 843 24.89 16 60.7 52 6.1 43.1
01:00 1014 29.94 843 24.89 15.8 60.5 52 6.2 43.1
01:05 1014 29.94 843 24.89 15.7 60.2 52 5.8 42.5
01:10 1014 29.94 843 24.89 15.7 60.3 51 5.8 42.5
01:15 1014 29.94 843 24.89 16 60.7 50 5.6 42.1
01:20 1014 29.94 843 24.89 16.3 61.3 49 5.7 42.3
01:25 1014 29.94 843 24.89 16.2 61.2 50 5.9 42.6
01:30 1014 29.94 843 24.89 16.1 60.9 51 5.9 42.7
01:35 1014 29.94 843 24.89 16.3 61.3 48 5.4 41.7
01:40 1014 29.94 843 24.89 16.4 61.5 49 5.9 42.6
01:45 1014 29.94 843 24.89 16.1 60.9 51 6 42.8
01:50 1014 29.94 843 24.89 16 60.8 51 5.9 42.5
01:55 1014 29.94 843 24.89 16 60.8 51 5.8 42.5
02:00 1014 29.94 843 24.89 16.1 61 49 5.4 41.7
02:05 1014 29.94 843 24.89 16.2 61.2 50 5.9 42.6
02:10 1014 29.94 843 24.89 15.9 60.5 51 5.8 42.4
02:15 1014 29.94 843 24.89 15.8 60.4 51 5.7 42.2
02:20 1014 29.94 843 24.89 15.8 60.4 51 5.8 42.5
02:25 1014 29.94 843 24.89 15.6 60.1 53 6 42.9
02:30 1014 29.94 843 24.89 15.4 59.7 52 5.7 42.3
02:35 1014 29.94 843 24.89 15.5 59.9 52 5.7 42.2
02:40 1014 29.94 843 24.89 15.6 60.2 51 5.7 42.3
02:45 1014 29.94 843 24.89 15.7 60.2 50 5.4 41.7
02:50 1014 29.94 843 24.89 16.2 61.1 48 5.3 41.6
02:55 1014 29.94 843 24.89 16.5 61.6 47 5.4 41.7
03:00 1014 29.94 843 24.89 16.5 61.7 48 5.6 42
03:05 1014 29.94 843 24.89 16.3 61.4 48 5.4 41.7
03:10 1014 29.94 843 24.89 16.3 61.4 48 5.4 41.7
03:15 1014 29.94 843 24.89 16.3 61.3 49 5.6 42.2
03:20 1014 29.94 843 24.89 16 60.8 50 5.7 42.2
03:25 1014 29.94 843 24.89 15.8 60.4 51 5.7 42.2
03:30 1014 29.94 843 24.89 15.7 60.3 51 5.6 42.1
03:35 1014 29.94 843 24.89 15.7 60.3 51 5.8 42.5
03:40 1014 29.94 843 24.89 15.6 60.1 52 5.9 42.5
03:45 1014 29.94 843 24.89 15.2 59.3 53 5.8 42.4
03:50 1014 29.94 843 24.89 15 58.9 53 5.5 41.9
03:55 1014 29.94 843 24.89 15 59.1 53 5.6 42.2
04:00 1014 29.94 843 24.89 15 58.9 53 5.5 41.8
04:05 1014 29.94 843 24.89 15.1 59.1 52 5.3 41.6
04:10 1014 29.94 843 24.89 15.2 59.3 52 5.4 41.6
04:15 1014 29.94 843 24.89 15.2 59.3 52 5.4 41.6
04:20 1014 29.94 843 24.89 15.2 59.3 51 5.2 41.4
04:25 1014 29.94 843 24.89 15.3 59.5 51 5.3 41.6
04:30 1014 29.94 843 24.89 15.2 59.3 51 5.3 41.6
04:35 1014 29.94 843 24.89 15.2 59.3 51 5.3 41.6
04:40 1014 29.94 843 24.89 15.1 59.3 52 5.4 41.7
04:45 1014 29.94 843 24.89 15.2 59.3 51 5.1 41.3
04:50 1014 29.94 843 24.89 15.2 59.4 52 5.4 41.7
04:55 1014 29.94 843 24.89 14.9 58.9 52 5.3 41.6
05:00 1014 29.94 843 24.89 14.9 58.8 52 5.3 41.5
05:05 1014 29.94 843 24.89 15 59 51 5.1 41.1
05:10 1014 29.94 843 24.89 15.2 59.4 50 5.1 41.1
05:15 1014 29.94 843 24.89 15.5 59.8 49 5 41.1
05:20 1014 29.94 843 24.89 15.7 60.2 49 5.1 41.2
05:25 1014 29.94 843 24.89 15.8 60.4 49 5.2 41.3
05:30 1014 29.94 843 24.89 15.7 60.2 50 5.4 41.8
05:35 1014 29.94 843 24.89 15.5 60 50 5.2 41.4
05:40 1014 29.94 843 24.89 15.6 60.1 51 5.7 42.3
05:45 1014 29.94 843 24.89 15.5 59.9 51 5.5 41.9
05:50 1014 29.94 843 24.89 15.4 59.8 51 5.5 41.9
05:55 1014 29.94 843 24.89 15.3 59.5 52 5.6 42.1
06:00 1014 29.94 843 24.89 15.4 59.7 52 5.6 42.1
06:05 1014 29.94 843 24.89 15.7 60.2 51 5.6 42.2
06:10 1014 29.94 843 24.89 16 60.7 50 5.8 42.4
06:15 1014 29.94 843 24.89 16.1 61 52 6.4 43.5
06:20 1014 29.94 843 24.89 16.1 61 51 6.1 43
06:25 1014 29.94 843 24.89 16.2 61.2 53 6.8 44.3
06:30 1014 29.94 843 24.89 16.3 61.3 50 6 42.9
06:35 1014 29.94 843 24.89 16.8 62.2 48 5.8 42.4
06:40 1014 29.94 843 24.89 17 62.5 48 6.1 43
06:45 1014 29.94 843 24.89 17.3 63.1 48 6.3 43.3
06:50 1014 29.94 843 24.89 17.6 63.6 50 7.1 44.7
06:55 1014 29.94 843 24.89 17.9 64.2 45 6 42.9
07:00 1014 29.94 843 24.89 18.2 64.7 48 7.1 44.7
07:05 1014 29.94 843 24.89 18.6 65.4 46 6.7 44.1
07:10 1014 29.94 843 24.89 18.7 65.7 42 5.8 42.4
07:15 1014 29.94 843 24.89 19 66.2 42 6.1 42.9
07:20 1014 29.94 844 24.92 19.4 66.9 40 5.5 42
07:25 1014 29.94 844 24.92 19.5 67 41 6 42.9
07:30 1014 29.94 844 24.92 19.7 67.5 38 5.3 41.6
07:35 1014 29.94 844 24.92 20.4 68.7 36 4.9 40.8
07:40 1014 29.94 844 24.92 21.1 69.9 38 6.2 43.2
07:45 1014 29.94 844 24.92 21.4 70.6 36 6.1 43
07:50 1015 29.97 844 24.92 21.8 71.3 41 8.3 46.9
07:55 1015 29.97 844 24.92 21.1 69.9 43 8.2 46.8
08:00 1015 29.97 844 24.92 20.7 69.2 45 8.4 47
08:05 1015 29.97 844 24.92 20.4 68.7 44 7.7 45.9
08:10 1015 29.97 844 24.92 20.2 68.4 44 7.8 46.1
08:15 1015 29.97 844 24.92 19.9 67.7 48 8.8 47.8
08:20 1015 29.97 844 24.92 19.7 67.4 48 8.5 47.2
08:25 1015 29.97 844 24.92 20 68.1 45 8 46.5
08:30 1015 29.97 844 24.92 19.7 67.5 47 8.3 46.9
08:35 1015 29.97 844 24.92 20.2 68.3 45 7.9 46.3
08:40 1015 29.97 844 24.92 20.2 68.4 44 7.9 46.1
08:45 1015 29.97 844 24.92 19.9 67.7 45 7.6 45.7
08:50 1015 29.97 844 24.92 19.9 67.7 43 6.9 44.5
08:55 1015 29.97 844 24.92 19.7 67.5 44 7.2 45
09:00 1015 29.97 844 24.92 19.9 67.9 43 7 44.6
09:05 1015 29.97 844 24.92 20.8 69.5 39 6.4 43.5
09:10 1015 29.97 844 24.92 20.8 69.5 40 6.8 44.2
09:15 1015 29.97 844 24.92 21.2 70.1 40 7.2 44.9
09:20 1015 29.97 844 24.92 21.7 71 39 7.1 44.9
09:25 1015 29.97 844 24.92 21.3 70.3 41 7.5 45.5
09:30 1015 29.97 844 24.92 21.1 70 40 7.1 44.7
09:35 1015 29.97 844 24.92 21.6 70.8 40 7.6 45.6
09:40 1015 29.97 844 24.92 21.8 71.2 40 7.6 45.6
09:45 1015 29.97 844 24.92 21.9 71.4 37 6.7 44.1
09:50 1015 29.97 844 24.92 21.4 70.6 41 7.7 45.8
09:55 1015 29.97 844 24.92 21.9 71.5 38 7.3 45.2
10:00 1015 29.97 844 24.92 22.5 72.5 35 6.6 43.8
10:05 1015 29.97 844 24.92 22.3 72.1 34 5.7 42.3
10:10 1015 29.97 844 24.92 22.5 72.4 33 5.6 42
10:15 1015 29.97 844 24.92 22.9 73.2 33 6 42.9
10:20 1015 29.97 844 24.92 22.9 73.3 32 5.8 42.4
10:25 1015 29.97 844 24.92 22.8 73.1 33 5.9 42.6
10:30 1015 29.97 844 24.92 23.6 74.4 30 5.3 41.5
10:35 1015 29.97 844 24.92 23.6 74.5 30 5.2 41.3
10:40 1014 29.94 844 24.92 24.9 76.7 28 5.3 41.6
10:45 1014 29.94 844 24.92 25.2 77.3 26 4.5 40.1
10:50 1014 29.94 844 24.92 25 76.9 28 5.4 41.7
10:55 1014 29.94 844 24.92 25 77 29 5.9 42.6
11:00 1014 29.94 844 24.92 25 76.9 29 6 42.8
11:05 1014 29.94 844 24.92 25.2 77.3 27 5 41.1
11:10 1014 29.94 844 24.92 25.2 77.4 26 4.7 40.5
11:15 1014 29.94 843 24.89 25.4 77.7 25 4.4 40
11:20 1014 29.94 844 24.92 25.6 78 25 4.4 39.9
11:25 1014 29.94 844 24.92 25.3 77.6 28 5.5 42
11:30 1014 29.94 843 24.89 24.5 76 27 4.5 40.2
11:35 1014 29.94 843 24.89 24.5 76.1 27 4.6 40.3
11:40 1014 29.94 843 24.89 25.1 77.1 27 5 41
11:45 1014 29.94 843 24.89 25.5 77.9 27 5.4 41.7
11:50 1014 29.94 843 24.89 25.1 77.2 29 5.9 42.6
11:55 1014 29.94 843 24.89 25.4 77.8 27 5.4 41.8
12:00 1014 29.94 843 24.89 25 77 28 5.2 41.4
12:05 1014 29.94 843 24.89 25.6 78.1 26 5.1 41.1
12:10 1014 29.94 843 24.89 26.5 79.6 25 5.1 41.2
12:15 1014 29.94 843 24.89 26.8 80.2 25 5.3 41.5
12:20 1014 29.94 843 24.89 26.4 79.6 25 5.2 41.4
12:25 1014 29.94 843 24.89 26.7 80.1 25 5.3 41.5
12:30 1014 29.94 843 24.89 26.5 79.7 25 5 41.1
12:35 1014 29.94 843 24.89 26.7 80.1 25 5.2 41.4
12:40 1014 29.94 843 24.89 26.2 79.1 25 5 41
12:45 1014 29.94 843 24.89 25.6 78.1 25 4.5 40.1
12:50 1014 29.94 843 24.89 26.3 79.4 26 5.4 41.7
12:55 1014 29.94 843 24.89 26.1 79 26 5.4 41.7
13:00 1014 29.94 843 24.89 26.3 79.4 26 5.7 42.2
13:05 1014 29.94 843 24.89 26.3 79.3 25 5 41.1
13:10 1014 29.94 843 24.89 26.4 79.6 26 5.4 41.8
13:15 1014 29.94 843 24.89 26.5 79.7 26 5.8 42.4
13:20 1014 29.94 843 24.89 25.7 78.3 27 5.7 42.2
13:25 1014 29.94 843 24.89 26 78.8 26 5.4 41.7
13:30 1014 29.94 843 24.89 26.7 80 25 5.4 41.7
13:35 1014 29.94 843 24.89 27.3 81.2 25 5.7 42.2
13:40 1014 29.94 843 24.89 27.3 81.1 26 6.5 43.7
13:45 1014 29.94 843 24.89 26.8 80.2 27 6.4 43.5
13:50 1014 29.94 843 24.89 26.1 79 28 6.7 44
13:55 1014 29.94 843 24.89 25.3 77.5 31 7.1 44.8
14:00 1014 29.94 843 24.89 24.3 75.8 34 7.5 45.6
14:05 1014 29.94 843 24.89 23.6 74.4 34 7 44.6
14:10 1014 29.94 843 24.89 23.3 73.9 42 9.7 49.5
14:15 1014 29.94 843 24.89 21.8 71.2 49 10.8 51.4
14:20 1014 29.94 843 24.89 20.6 69.1 51 10.1 50.2
14:25 1014 29.94 843 24.89 20.2 68.3 51 9.9 49.8
14:30 1014 29.94 843 24.89 20 67.9 47 8.5 47.3
14:35 1014 29.94 843 24.89 19.2 66.6 52 9.3 48.7
14:40 1014 29.94 843 24.89 18.8 65.8 56 10 50.1
14:45 1014 29.94 843 24.89 18.5 65.3 60 10.7 51.2
14:50 1014 29.94 843 24.89 18.5 65.2 56 9.7 49.4
14:55 1014 29.94 843 24.89 18.9 66.1 61 11.4 52.5
15:00 1014 29.94 843 24.89 18.7 65.6 61 11.1 51.9
15:05 1014 29.94 843 24.89 18.8 65.8 61 11.2 52.2
15:10 1014 29.94 844 24.92 18.6 65.4 63 11.5 52.6
15:15 1015 29.97 844 24.92 18.3 64.9 57 9.7 49.5
15:20 1015 29.97 844 24.92 18.3 65 57 9.7 49.4
15:25 1015 29.97 844 24.92 17.7 63.9 64 10.8 51.5
15:30 1015 29.97 844 24.92 17 62.7 63 10.1 50.2
15:35 1015 29.97 844 24.92 16.8 62.3 66 10.4 50.7
15:40 1015 29.97 844 24.92 16.6 61.8 67 10.5 50.9
15:45 1015 29.97 844 24.92 16.5 61.8 67 10.4 50.7
15:50 1015 29.97 844 24.92 16.5 61.7 68 10.6 51.1
15:55 1015 29.97 844 24.92 16.7 62 68 10.9 51.5
16:00 1015 29.97 844 24.92 17 62.5 65 10.4 50.7
16:05 1015 29.97 844 24.92 17.2 62.9 65 10.5 50.9
16:10 1015 29.97 844 24.92 17.2 63 65 10.6 51.1
16:15 1015 29.97 844 24.92 17.4 63.4 65 10.9 51.5
16:20 1015 29.97 844 24.92 17.6 63.6 63 10.6 51
16:25 1015 29.97 844 24.92 17.8 64 64 11 51.8
16:30 1015 29.97 845 24.95 17.8 64.1 64 11 51.9
16:35 1015 29.97 845 24.95 17.7 63.8 67 11.6 52.9
16:40 1015 29.97 845 24.95 17.7 63.8 63 10.6 51.1
16:45 1015 29.97 844 24.92 18.1 64.6 63 10.9 51.7
16:50 1015 29.97 844 24.92 18.4 65.2 57 9.7 49.5
16:55 1015 29.97 844 24.92 18.8 65.8 56 9.9 49.8
17:00 1015 29.97 844 24.92 19.1 66.4 56 10.3 50.5
17:05 1015 29.97 844 24.92 19.2 66.5 57 10.6 51
17:10 1015 29.97 844 24.92 18.8 65.9 61 11.1 52.1
17:15 1015 29.97 844 24.92 18.3 65 62 10.9 51.7
17:20 1015 29.97 844 24.92 18.3 64.9 58 9.9 49.8
17:25 1015 29.97 844 24.92 18.4 65 61 10.9 51.6
17:30 1015 29.97 844 24.92 18.3 64.9 62 11 51.7
17:35 1015 29.97 844 24.92 18.4 65.1 63 11.3 52.3
17:40 1015 29.97 844 24.92 18.5 65.2 62 11.2 52.1
17:45 1015 29.97 844 24.92 18.4 65.1 63 11.4 52.5
17:50 1015 29.97 844 24.92 18.4 65.1 62 11.1 52
17:55 1015 29.97 844 24.92 18.8 65.8 58 10.5 50.9
18:00 1015 29.97 844 24.92 19.3 66.7 57 10.6 51.1
18:05 1015 29.97 844 24.92 19.5 67.1 53 9.9 49.8
18:10 1015 29.97 844 24.92 19.7 67.4 53 9.8 49.7
18:15 1015 29.97 844 24.92 19.8 67.6 52 9.7 49.4
18:20 1015 29.97 844 24.92 20 68 53 10.2 50.3
18:25 1015 29.97 844 24.92 19.8 67.7 54 10.3 50.5
18:30 1015 29.97 844 24.92 19.4 66.9 56 10.6 51.2
18:35 1015 29.97 844 24.92 19.1 66.4 58 10.7 51.3
18:40 1015 29.97 844 24.92 19 66.1 58 10.6 51.1
18:45 1015 29.97 844 24.92 18.9 66 57 10.4 50.7
18:50 1015 29.97 844 24.92 18.9 65.9 57 10.4 50.6
18:55 1015 29.97 844 24.92 18.8 65.8 58 10.4 50.7
19:00 1015 29.97 844 24.92 18.7 65.7 59 10.6 51
19:05 1015 29.97 844 24.92 18.7 65.6 59 10.5 50.9
19:10 1015 29.97 844 24.92 18.7 65.6 58 10.4 50.7
19:15 1015 29.97 844 24.92 18.6 65.4 58 10.3 50.6
19:20 1015 29.97 844 24.92 18.5 65.3 58 10.3 50.5
19:25 1015 29.97 844 24.92 18.4 65.1 59 10.3 50.5
19:30 1015 29.97 844 24.92 18.4 65.1 59 10.4 50.8
19:35 1015 29.97 844 24.92 18.3 64.9 58 10 50
19:40 1015 29.97 844 24.92 18.3 65 57 9.9 49.8
19:45 1015 29.97 844 24.92 18.3 65 58 9.9 49.9
19:50 1015 29.97 844 24.92 18.3 64.9 57 9.8 49.7
19:55 1015 29.97 844 24.92 18.3 64.9 58 10 50
20:00 1015 29.97 844 24.92 18.1 64.6 60 10.2 50.4
20:05 1015 29.97 844 24.92 18 64.3 61 10.4 50.7
20:10 1015 29.97 844 24.92 17.8 64 63 10.8 51.4
20:15 1015 29.97 844 24.92 17.8 64 62 10.5 50.9
20:20 1015 29.97 844 24.92 17.8 64 63 10.7 51.2
20:25 1015 29.97 844 24.92 17.8 64 62 10.4 50.8
20:30 1015 29.97 844 24.92 17.8 64 63 10.8 51.4
20:35 1015 29.97 844 24.92 17.6 63.7 65 11.1 51.9
20:40 1015 29.97 844 24.92 17.4 63.3 65 10.8 51.4
20:45 1015 29.97 844 24.92 17.2 62.9 66 10.7 51.3
20:50 1015 29.97 844 24.92 17 62.6 69 11.3 52.4
20:55 1015 29.97 844 24.92 16.9 62.3 68 10.9 51.6
21:00 1015 29.97 844 24.92 16.6 62 68 10.8 51.4
21:05 1015 29.97 844 24.92 16.6 61.9 65 10 50.1
21:10 1015 29.97 844 24.92 16.8 62.2 63 9.7 49.5
21:15 1015 29.97 844 24.92 16.9 62.3 63 9.8 49.6
21:20 1015 29.97 844 24.92 16.8 62.2 63 9.9 49.7
21:25 1015 29.97 844 24.92 16.7 62.1 64 9.9 49.8
21:30 1015 29.97 844 24.92 16.7 62.1 64 10 50
21:35 1015 29.97 844 24.92 16.9 62.4 63 9.9 49.9
21:40 1015 29.97 845 24.95 16.8 62.3 67 10.8 51.5
21:45 1015 29.97 845 24.95 16.6 61.8 68 10.7 51.2
21:50 1015 29.97 844 24.92 16.6 61.9 68 10.8 51.5
21:55 1015 29.97 844 24.92 16.3 61.4 68 10.4 50.7
22:00 1015 29.97 844 24.92 16.5 61.6 67 10.4 50.7
22:05 1015 29.97 844 24.92 16.6 61.8 71 11.4 52.4
22:10 1015 29.97 844 24.92 16.3 61.4 70 10.9 51.7
22:15 1015 29.97 844 24.92 16.4 61.5 68 10.5 50.9
22:20 1015 29.97 845 24.95 16.6 61.9 69 11 51.7
22:25 1016 30 845 24.95 16.9 62.3 65 10.3 50.6
22:30 1016 30 845 24.95 17.1 62.8 68 11.3 52.3
22:35 1016 30 845 24.95 16.9 62.5 69 11.3 52.3
22:40 1016 30 845 24.95 16.6 61.9 71 11.5 52.7
22:45 1016 30 845 24.95 16.1 60.9 75 11.6 52.9
22:50 1016 30 845 24.95 15.3 59.5 80 11.8 53.3
22:55 1016 30 845 24.95 15 58.9 79 11.3 52.4
23:00 1016 30 845 24.95 14.9 58.8 80 11.6 52.8
23:05 1016 30 845 24.95 14.6 58.3 82 11.5 52.7
23:10 1016 30 845 24.95 14.6 58.2 81 11.4 52.5
23:15 1016 30 845 24.95 14.7 58.4 82 11.7 53.1
23:20 1016 30 845 24.95 14.7 58.5 82 11.8 53.2
23:25 1016 30 845 24.95 14.5 58.2 84 11.9 53.4
23:30 1016 30 845 24.95 14.5 58 85 12 53.6
23:35 1016 30 845 24.95 14.3 57.7 84 11.7 53.1
23:40 1016 30 845 24.95 14.4 57.8 87 12.2 53.9
23:45 1016 30 845 24.95 14.1 57.4 88 12.1 53.9
23:50 1016 30 845 24.95 14 57.3 87 11.9 53.4
23:55 1016 30 845 24.95 14.1 57.3 87 11.9 53.5
24:00 1016 30 845 24.95 14 57.1 87 11.8 53.2